sensor_id;sensor_type;location;lat;lon;timestamp;pressure;altitude;pressure_sealevel;temperature;humidity
29825;BME280;16713;52.916;12.834;2023-10-31T00:01:13;98976.69;;;12.36;76.48
29825;BME280;16713;52.916;12.834;2023-10-31T00:03:40;98977.09;;;12.35;77.36
29825;BME280;16713;52.916;12.834;2023-10-31T00:06:08;98972.41;;;12.35;76.41
29825;BME280;16713;52.916;12.834;2023-10-31T00:08:35;98978.66;;;12.36;76.91
29825;BME280;16713;52.916;12.834;2023-10-31T00:11:01;98976.69;;;12.36;77.53
29825;BME280;16713;52.916;12.834;2023-10-31T00:13:28;98980.22;;;12.37;77.82
29825;BME280;16713;52.916;12.834;2023-10-31T00:15:54;98974.72;;;12.37;76.88
29825;BME280;16713;52.916;12.834;2023-10-31T00:18:21;98970.00;;;12.37;77.77
29825;BME280;16713;52.916;12.834;2023-10-31T00:20:48;98960.97;;;12.37;78.23
29825;BME280;16713;52.916;12.834;2023-10-31T00:23:15;98963.38;;;12.31;77.38
29825;BME280;16713;52.916;12.834;2023-10-31T00:25:41;98961.84;;;12.30;77.31
29825;BME280;16713;52.916;12.834;2023-10-31T00:28:08;98958.28;;;12.30;78.26
29825;BME280;16713;52.916;12.834;2023-10-31T00:30:34;98955.16;;;12.28;77.46
29825;BME280;16713;52.916;12.834;2023-10-31T00:33:00;98945.75;;;12.29;77.55
29825;BME280;16713;52.916;12.834;2023-10-31T00:35:27;98943.75;;;12.29;77.42
29825;BME280;16713;52.916;12.834;2023-10-31T00:37:53;98935.97;;;12.24;78.05
29825;BME280;16713;52.916;12.834;2023-10-31T00:40:20;98927.34;;;12.26;77.41
29825;BME280;16713;52.916;12.834;2023-10-31T00:42:46;98928.09;;;12.26;78.37
29825;BME280;16713;52.916;12.834;2023-10-31T00:45:13;98930.13;;;12.22;77.71
29825;BME280;16713;52.916;12.834;2023-10-31T00:47:39;98931.25;;;12.25;79.04
29825;BME280;16713;52.916;12.834;2023-10-31T00:50:06;98932.03;;;12.25;78.02
29825;BME280;16713;52.916;12.834;2023-10-31T00:52:34;98952.06;;;12.26;78.04
29825;BME280;16713;52.916;12.834;2023-10-31T00:55:00;98954.81;;;12.26;79.46
29825;BME280;16713;52.916;12.834;2023-10-31T00:57:27;98954.03;;;12.25;78.19
29825;BME280;16713;52.916;12.834;2023-10-31T00:59:54;98951.66;;;12.27;78.42
29825;BME280;16713;52.916;12.834;2023-10-31T01:02:20;98937.50;;;12.29;78.74
29825;BME280;16713;52.916;12.834;2023-10-31T01:04:47;98936.34;;;12.26;78.15
29825;BME280;16713;52.916;12.834;2023-10-31T01:07:13;98926.09;;;12.30;78.56
29825;BME280;16713;52.916;12.834;2023-10-31T01:09:43;98925.72;;;12.28;78.54
29825;BME280;16713;52.916;12.834;2023-10-31T01:12:10;98913.94;;;12.28;78.45
29825;BME280;16713;52.916;12.834;2023-10-31T01:14:37;98921.84;;;12.26;79.38
29825;BME280;16713;52.916;12.834;2023-10-31T01:17:04;98926.50;;;12.29;79.07
29825;BME280;16713;52.916;12.834;2023-10-31T01:19:30;98936.34;;;12.26;78.51
29825;BME280;16713;52.916;12.834;2023-10-31T01:21:57;98927.69;;;12.28;78.95
29825;BME280;16713;52.916;12.834;2023-10-31T01:24:23;98923.75;;;12.29;78.57
29825;BME280;16713;52.916;12.834;2023-10-31T01:26:50;98920.63;;;12.27;78.30
29825;BME280;16713;52.916;12.834;2023-10-31T01:29:16;98905.69;;;12.28;78.63
29825;BME280;16713;52.916;12.834;2023-10-31T01:31:43;98903.31;;;12.30;79.37
29825;BME280;16713;52.916;12.834;2023-10-31T01:34:24;98892.75;;;12.28;79.27
29825;BME280;16713;52.916;12.834;2023-10-31T01:36:51;98880.19;;;12.27;78.15
29825;BME280;16713;52.916;12.834;2023-10-31T01:39:18;98871.97;;;12.24;79.47
29825;BME280;16713;52.916;12.834;2023-10-31T01:41:44;98869.22;;;12.24;78.86
29825;BME280;16713;52.916;12.834;2023-10-31T01:44:11;98862.13;;;12.26;78.90
29825;BME280;16713;52.916;12.834;2023-10-31T01:46:37;98859.38;;;12.26;78.86
29825;BME280;16713;52.916;12.834;2023-10-31T01:49:03;98860.94;;;12.27;78.65
29825;BME280;16713;52.916;12.834;2023-10-31T01:51:30;98857.41;;;12.27;79.25
29825;BME280;16713;52.916;12.834;2023-10-31T01:53:57;98855.13;;;12.22;79.03
29825;BME280;16713;52.916;12.834;2023-10-31T01:56:24;98857.03;;;12.25;78.37
29825;BME280;16713;52.916;12.834;2023-10-31T01:58:52;98848.78;;;12.25;78.51
29825;BME280;16713;52.916;12.834;2023-10-31T02:01:19;98841.75;;;12.24;79.25
29825;BME280;16713;52.916;12.834;2023-10-31T02:03:47;98836.28;;;12.20;78.45
29825;BME280;16713;52.916;12.834;2023-10-31T02:06:14;98830.78;;;12.20;78.81
29825;BME280;16713;52.916;12.834;2023-10-31T02:08:41;98830.38;;;12.22;79.31
29825;BME280;16713;52.916;12.834;2023-10-31T02:11:07;98821.34;;;12.21;78.64
29825;BME280;16713;52.916;12.834;2023-10-31T02:13:36;98822.53;;;12.20;79.28
29825;BME280;16713;52.916;12.834;2023-10-31T02:16:04;98826.06;;;12.21;78.79
29825;BME280;16713;52.916;12.834;2023-10-31T02:18:30;98818.59;;;12.21;79.47
29825;BME280;16713;52.916;12.834;2023-10-31T02:20:58;98811.97;;;12.19;80.09
29825;BME280;16713;52.916;12.834;2023-10-31T02:23:24;98809.63;;;12.17;79.60
29825;BME280;16713;52.916;12.834;2023-10-31T02:25:51;98810.41;;;12.18;79.10
29825;BME280;16713;52.916;12.834;2023-10-31T02:28:17;98810.41;;;12.18;79.75
29825;BME280;16713;52.916;12.834;2023-10-31T02:30:44;98810.78;;;12.16;79.59
29825;BME280;16713;52.916;12.834;2023-10-31T02:33:11;98805.69;;;12.18;80.04
29825;BME280;16713;52.916;12.834;2023-10-31T02:35:38;98800.19;;;12.18;80.05
29825;BME280;16713;52.916;12.834;2023-10-31T02:38:04;98788.78;;;12.20;80.15
29825;BME280;16713;52.916;12.834;2023-10-31T02:40:31;98787.59;;;12.21;78.94
29825;BME280;16713;52.916;12.834;2023-10-31T02:42:57;98796.59;;;12.21;79.04
29825;BME280;16713;52.916;12.834;2023-10-31T02:45:24;98787.94;;;12.23;79.03
29825;BME280;16713;52.916;12.834;2023-10-31T02:47:50;98789.16;;;12.22;80.21
29825;BME280;16713;52.916;12.834;2023-10-31T02:50:17;98789.59;;;12.17;80.42
29825;BME280;16713;52.916;12.834;2023-10-31T02:52:43;98779.78;;;12.19;79.78
29825;BME280;16713;52.916;12.834;2023-10-31T02:55:10;98780.19;;;12.18;79.80
29825;BME280;16713;52.916;12.834;2023-10-31T02:57:36;98774.31;;;12.16;80.29
29825;BME280;16713;52.916;12.834;2023-10-31T03:00:03;98775.81;;;12.20;79.28
29825;BME280;16713;52.916;12.834;2023-10-31T03:02:30;98775.81;;;12.20;79.93
29825;BME280;16713;52.916;12.834;2023-10-31T03:04:57;98764.41;;;12.22;79.39
29825;BME280;16713;52.916;12.834;2023-10-31T03:07:24;98766.34;;;12.25;79.78
29825;BME280;16713;52.916;12.834;2023-10-31T03:09:50;98766.34;;;12.25;79.55
29825;BME280;16713;52.916;12.834;2023-10-31T03:12:16;98764.78;;;12.24;80.04
29825;BME280;16713;52.916;12.834;2023-10-31T03:14:43;98754.16;;;12.26;80.45
29825;BME280;16713;52.916;12.834;2023-10-31T03:17:09;98761.22;;;12.27;80.32
29825;BME280;16713;52.916;12.834;2023-10-31T03:19:36;98753.00;;;12.23;79.92
29825;BME280;16713;52.916;12.834;2023-10-31T03:22:02;98749.13;;;12.21;80.61
29825;BME280;16713;52.916;12.834;2023-10-31T03:24:29;98752.63;;;12.21;80.74
29825;BME280;16713;52.916;12.834;2023-10-31T03:26:55;98756.16;;;12.22;79.89
29825;BME280;16713;52.916;12.834;2023-10-31T03:29:21;98746.38;;;12.21;79.47
29825;BME280;16713;52.916;12.834;2023-10-31T03:31:48;98751.03;;;12.24;80.74
29825;BME280;16713;52.916;12.834;2023-10-31T03:34:14;98745.13;;;12.25;80.47
29825;BME280;16713;52.916;12.834;2023-10-31T03:36:41;98751.34;;;12.29;80.65
29825;BME280;16713;52.916;12.834;2023-10-31T03:39:07;98749.75;;;12.32;80.78
29825;BME280;16713;52.916;12.834;2023-10-31T03:41:34;98749.72;;;12.35;80.75
29825;BME280;16713;52.916;12.834;2023-10-31T03:44:00;98748.91;;;12.35;79.93
29825;BME280;16713;52.916;12.834;2023-10-31T03:46:27;98740.25;;;12.36;79.66
29825;BME280;16713;52.916;12.834;2023-10-31T03:48:53;98742.97;;;12.40;79.30
29825;BME280;16713;52.916;12.834;2023-10-31T03:51:20;98739.78;;;12.41;79.38
29825;BME280;16713;52.916;12.834;2023-10-31T03:53:46;98743.25;;;12.45;80.22
29825;BME280;16713;52.916;12.834;2023-10-31T03:56:12;98737.75;;;12.45;79.71
29825;BME280;16713;52.916;12.834;2023-10-31T03:58:40;98737.00;;;12.45;79.50
29825;BME280;16713;52.916;12.834;2023-10-31T04:01:07;98726.75;;;12.45;80.40
29825;BME280;16713;52.916;12.834;2023-10-31T04:03:34;98725.63;;;12.43;78.99
29825;BME280;16713;52.916;12.834;2023-10-31T04:06:00;98720.91;;;12.43;79.09
29825;BME280;16713;52.916;12.834;2023-10-31T04:08:26;98729.94;;;12.44;79.31
29825;BME280;16713;52.916;12.834;2023-10-31T04:10:53;98718.97;;;12.40;79.33
29825;BME280;16713;52.916;12.834;2023-10-31T04:13:19;98726.47;;;12.40;80.62
29825;BME280;16713;52.916;12.834;2023-10-31T04:15:46;98731.19;;;12.39;79.86
29825;BME280;16713;52.916;12.834;2023-10-31T04:18:12;98730.06;;;12.37;80.71
29825;BME280;16713;52.916;12.834;2023-10-31T04:20:39;98739.06;;;12.37;79.94
29825;BME280;16713;52.916;12.834;2023-10-31T04:23:06;98739.06;;;12.37;80.44
29825;BME280;16713;52.916;12.834;2023-10-31T04:25:33;98743.41;;;12.35;80.38
29825;BME280;16713;52.916;12.834;2023-10-31T04:27:59;98739.88;;;12.34;80.81
29825;BME280;16713;52.916;12.834;2023-10-31T04:30:26;98737.09;;;12.38;81.15
29825;BME280;16713;52.916;12.834;2023-10-31T04:32:54;98733.94;;;12.39;80.80
29825;BME280;16713;52.916;12.834;2023-10-31T04:35:20;98726.16;;;12.34;80.15
29825;BME280;16713;52.916;12.834;2023-10-31T04:37:47;98724.97;;;12.35;80.52
29825;BME280;16713;52.916;12.834;2023-10-31T04:40:13;98717.91;;;12.34;80.86
29825;BME280;16713;52.916;12.834;2023-10-31T04:42:40;98717.06;;;12.37;80.16
29825;BME280;16713;52.916;12.834;2023-10-31T04:45:07;98717.06;;;12.37;80.73
29825;BME280;16713;52.916;12.834;2023-10-31T04:47:34;98723.34;;;12.38;81.09
29825;BME280;16713;52.916;12.834;2023-10-31T04:50:01;98715.47;;;12.40;81.26
29825;BME280;16713;52.916;12.834;2023-10-31T04:52:27;98711.94;;;12.39;79.96
29825;BME280;16713;52.916;12.834;2023-10-31T04:54:54;98706.81;;;12.41;80.05
29825;BME280;16713;52.916;12.834;2023-10-31T04:57:20;98702.47;;;12.40;80.32
29825;BME280;16713;52.916;12.834;2023-10-31T04:59:47;98702.56;;;12.37;81.26
29825;BME280;16713;52.916;12.834;2023-10-31T05:02:13;98700.94;;;12.39;81.63
29825;BME280;16713;52.916;12.834;2023-10-31T05:04:40;98697.34;;;12.42;80.54
29825;BME280;16713;52.916;12.834;2023-10-31T05:07:07;98702.03;;;12.45;81.06
29825;BME280;16713;52.916;12.834;2023-10-31T05:09:34;98699.28;;;12.45;81.33
29825;BME280;16713;52.916;12.834;2023-10-31T05:12:01;98694.19;;;12.44;81.27
29825;BME280;16713;52.916;12.834;2023-10-31T05:14:28;98698.50;;;12.45;81.49
29825;BME280;16713;52.916;12.834;2023-10-31T05:16:55;98694.13;;;12.47;81.58
29825;BME280;16713;52.916;12.834;2023-10-31T05:19:21;98703.22;;;12.44;81.79
29825;BME280;16713;52.916;12.834;2023-10-31T05:21:48;98701.25;;;12.45;80.78
29825;BME280;16713;52.916;12.834;2023-10-31T05:24:14;98704.00;;;12.45;81.53
29825;BME280;16713;52.916;12.834;2023-10-31T05:26:41;98697.31;;;12.46;81.16
29825;BME280;16713;52.916;12.834;2023-10-31T05:29:09;98695.69;;;12.48;80.65
29825;BME280;16713;52.916;12.834;2023-10-31T05:31:36;98694.97;;;12.44;81.76
29825;BME280;16713;52.916;12.834;2023-10-31T05:34:02;98692.28;;;12.41;81.44
29825;BME280;16713;52.916;12.834;2023-10-31T05:36:30;98695.38;;;12.43;82.05
29825;BME280;16713;52.916;12.834;2023-10-31T05:38:57;98691.44;;;12.44;82.47
29825;BME280;16713;52.916;12.834;2023-10-31T05:41:23;98696.59;;;12.42;82.32
29825;BME280;16713;52.916;12.834;2023-10-31T05:43:50;98691.84;;;12.42;81.23
29825;BME280;16713;52.916;12.834;2023-10-31T05:46:16;98680.09;;;12.42;82.03
29825;BME280;16713;52.916;12.834;2023-10-31T05:48:46;98678.91;;;12.43;81.88
29825;BME280;16713;52.916;12.834;2023-10-31T05:51:15;98678.09;;;12.42;81.73
29825;BME280;16713;52.916;12.834;2023-10-31T05:53:44;98671.44;;;12.43;82.17
29825;BME280;16713;52.916;12.834;2023-10-31T05:56:12;98680.84;;;12.42;81.63
29825;BME280;16713;52.916;12.834;2023-10-31T05:58:39;98685.53;;;12.45;82.25
29825;BME280;16713;52.916;12.834;2023-10-31T06:01:06;98683.97;;;12.44;82.03
29825;BME280;16713;52.916;12.834;2023-10-31T06:03:34;98682.78;;;12.45;81.79
29825;BME280;16713;52.916;12.834;2023-10-31T06:06:01;98685.88;;;12.47;82.52
29825;BME280;16713;52.916;12.834;2023-10-31T06:08:27;98690.97;;;12.49;81.79
29825;BME280;16713;52.916;12.834;2023-10-31T06:10:55;98692.13;;;12.51;82.43
29825;BME280;16713;52.916;12.834;2023-10-31T06:13:23;98696.00;;;12.54;82.81
29825;BME280;16713;52.916;12.834;2023-10-31T06:15:53;98695.59;;;12.55;82.07
29825;BME280;16713;52.916;12.834;2023-10-31T06:18:22;98689.28;;;12.55;82.20
29825;BME280;16713;52.916;12.834;2023-10-31T06:20:49;98695.16;;;12.57;81.89
29825;BME280;16713;52.916;12.834;2023-10-31T06:23:15;98699.88;;;12.56;82.84
29825;BME280;16713;52.916;12.834;2023-10-31T06:25:42;98707.38;;;12.56;81.74
29825;BME280;16713;52.916;12.834;2023-10-31T06:28:08;98707.31;;;12.59;81.69
29825;BME280;16713;52.916;12.834;2023-10-31T06:30:34;98711.63;;;12.60;82.11
29825;BME280;16713;52.916;12.834;2023-10-31T06:33:01;98718.25;;;12.63;83.17
29825;BME280;16713;52.916;12.834;2023-10-31T06:35:27;98711.56;;;12.64;82.30
29825;BME280;16713;52.916;12.834;2023-10-31T06:37:55;98710.38;;;12.65;82.62
29825;BME280;16713;52.916;12.834;2023-10-31T06:40:24;98706.81;;;12.68;82.41
29825;BME280;16713;52.916;12.834;2023-10-31T06:42:51;98709.13;;;12.69;81.98
29825;BME280;16713;52.916;12.834;2023-10-31T06:45:18;98706.38;;;12.69;82.16
29825;BME280;16713;52.916;12.834;2023-10-31T06:47:44;98704.00;;;12.71;82.20
29825;BME280;16713;52.916;12.834;2023-10-31T06:50:11;98695.31;;;12.73;82.21
29825;BME280;16713;52.916;12.834;2023-10-31T06:52:37;98702.75;;;12.76;81.98
29825;BME280;16713;52.916;12.834;2023-10-31T06:55:04;98705.50;;;12.76;83.51
29825;BME280;16713;52.916;12.834;2023-10-31T06:57:30;98703.47;;;12.80;83.18
29825;BME280;16713;52.916;12.834;2023-10-31T06:59:57;98699.56;;;12.77;83.22
29825;BME280;16713;52.916;12.834;2023-10-31T07:02:23;98697.19;;;12.79;82.95
29825;BME280;16713;52.916;12.834;2023-10-31T07:04:52;98704.59;;;12.82;82.73
29825;BME280;16713;52.916;12.834;2023-10-31T07:07:18;98705.34;;;12.86;82.50
29825;BME280;16713;52.916;12.834;2023-10-31T07:09:45;98704.56;;;12.86;82.79
29825;BME280;16713;52.916;12.834;2023-10-31T07:12:11;98702.22;;;12.84;82.50
29825;BME280;16713;52.916;12.834;2023-10-31T07:14:38;98713.66;;;12.83;83.08
29825;BME280;16713;52.916;12.834;2023-10-31T07:17:04;98712.81;;;12.86;83.33
29825;BME280;16713;52.916;12.834;2023-10-31T07:19:31;98712.81;;;12.86;84.00
29825;BME280;16713;52.916;12.834;2023-10-31T07:21:57;98719.50;;;12.85;84.20
29825;BME280;16713;52.916;12.834;2023-10-31T07:24:23;98718.72;;;12.84;83.21
29825;BME280;16713;52.916;12.834;2023-10-31T07:26:50;98713.66;;;12.83;82.71
29825;BME280;16713;52.916;12.834;2023-10-31T07:29:17;98736.06;;;12.81;83.18
29825;BME280;16713;52.916;12.834;2023-10-31T07:31:43;98740.78;;;12.81;82.37
29825;BME280;16713;52.916;12.834;2023-10-31T07:34:10;98740.31;;;12.86;81.49
29825;BME280;16713;52.916;12.834;2023-10-31T07:36:37;98749.09;;;12.77;81.10
29825;BME280;16713;52.916;12.834;2023-10-31T07:39:05;98764.94;;;12.70;80.36
29825;BME280;16713;52.916;12.834;2023-10-31T07:41:32;98761.81;;;12.68;80.96
29825;BME280;16713;52.916;12.834;2023-10-31T07:43:58;98770.38;;;12.73;80.95
29825;BME280;16713;52.916;12.834;2023-10-31T07:46:25;98767.41;;;12.61;80.97
29825;BME280;16713;52.916;12.834;2023-10-31T07:48:51;98769.84;;;12.55;80.36
29825;BME280;16713;52.916;12.834;2023-10-31T07:51:18;98778.47;;;12.57;80.17
29825;BME280;16713;52.916;12.834;2023-10-31T07:53:44;98778.03;;;12.59;78.78
29825;BME280;16713;52.916;12.834;2023-10-31T07:56:20;98781.91;;;12.61;79.13
29825;BME280;16713;52.916;12.834;2023-10-31T07:58:49;98785.50;;;12.58;79.04
29825;BME280;16713;52.916;12.834;2023-10-31T08:01:17;98778.97;;;12.49;80.02
29825;BME280;16713;52.916;12.834;2023-10-31T08:03:48;98788.66;;;12.57;79.25
29825;BME280;16713;52.916;12.834;2023-10-31T08:06:15;98783.00;;;12.41;79.34
29825;BME280;16713;52.916;12.834;2023-10-31T08:08:41;98791.56;;;12.46;79.42
29825;BME280;16713;52.916;12.834;2023-10-31T08:11:09;98801.00;;;12.45;79.62
29825;BME280;16713;52.916;12.834;2023-10-31T08:13:39;98797.56;;;12.38;78.98
29825;BME280;16713;52.916;12.834;2023-10-31T08:16:06;98809.22;;;12.49;78.31
29825;BME280;16713;52.916;12.834;2023-10-31T08:18:34;98802.28;;;12.37;79.07
29825;BME280;16713;52.916;12.834;2023-10-31T08:21:01;98815.91;;;12.48;79.04
29825;BME280;16713;52.916;12.834;2023-10-31T08:23:28;98819.78;;;12.50;78.71
29825;BME280;16713;52.916;12.834;2023-10-31T08:25:55;98821.00;;;12.49;77.47
29825;BME280;16713;52.916;12.834;2023-10-31T08:28:21;98825.72;;;12.49;77.05
29825;BME280;16713;52.916;12.834;2023-10-31T08:30:48;98824.16;;;12.48;77.31
29825;BME280;16713;52.916;12.834;2023-10-31T08:33:14;98841.75;;;12.54;77.75
29825;BME280;16713;52.916;12.834;2023-10-31T08:35:41;98843.72;;;12.53;78.39
29825;BME280;16713;52.916;12.834;2023-10-31T08:38:09;98843.66;;;12.57;77.10
29825;BME280;16713;52.916;12.834;2023-10-31T08:40:49;98848.44;;;12.53;78.33
29825;BME280;16713;52.916;12.834;2023-10-31T08:43:15;98848.53;;;12.46;77.27
29825;BME280;16713;52.916;12.834;2023-10-31T08:45:42;98850.81;;;12.51;76.15
29825;BME280;16713;52.916;12.834;2023-10-31T08:48:09;98846.97;;;12.45;76.47
29825;BME280;16713;52.916;12.834;2023-10-31T08:50:35;98855.13;;;12.52;75.65
29825;BME280;16713;52.916;12.834;2023-10-31T08:53:02;98871.31;;;12.46;76.26
29825;BME280;16713;52.916;12.834;2023-10-31T08:55:28;98872.56;;;12.42;75.69
29825;BME280;16713;52.916;12.834;2023-10-31T08:57:55;98872.16;;;12.43;76.12
29825;BME280;16713;52.916;12.834;2023-10-31T09:00:21;98873.69;;;12.44;75.79
29825;BME280;16713;52.916;12.834;2023-10-31T09:02:48;98888.16;;;12.48;75.13
29825;BME280;16713;52.916;12.834;2023-10-31T09:05:15;98889.78;;;12.46;74.62
29825;BME280;16713;52.916;12.834;2023-10-31T09:07:41;98887.03;;;12.46;74.76
29825;BME280;16713;52.916;12.834;2023-10-31T09:10:08;98891.75;;;12.45;74.20
29825;BME280;16713;52.916;12.834;2023-10-31T09:12:35;98900.09;;;12.38;75.56
29825;BME280;16713;52.916;12.834;2023-10-31T09:15:01;98895.25;;;12.49;74.31
29825;BME280;16713;52.916;12.834;2023-10-31T09:17:28;98895.69;;;12.44;73.76
29825;BME280;16713;52.916;12.834;2023-10-31T09:19:55;98901.47;;;12.53;73.91
29825;BME280;16713;52.916;12.834;2023-10-31T09:22:21;98912.84;;;12.55;74.10
29825;BME280;16713;52.916;12.834;2023-10-31T09:24:48;98906.69;;;12.44;74.51
29825;BME280;16713;52.916;12.834;2023-10-31T09:27:14;98909.47;;;12.41;73.82
29825;BME280;16713;52.916;12.834;2023-10-31T09:29:41;98913.72;;;12.45;73.18
29825;BME280;16713;52.916;12.834;2023-10-31T09:32:07;98925.88;;;12.51;74.28
29825;BME280;16713;52.916;12.834;2023-10-31T09:34:34;98925.38;;;12.56;74.42
29825;BME280;16713;52.916;12.834;2023-10-31T09:37:00;98930.13;;;12.56;73.91
29825;BME280;16713;52.916;12.834;2023-10-31T09:39:27;98925.09;;;12.47;73.24
29825;BME280;16713;52.916;12.834;2023-10-31T09:41:54;98931.00;;;12.49;72.63
29825;BME280;16713;52.916;12.834;2023-10-31T09:44:21;98931.41;;;12.48;72.81
29825;BME280;16713;52.916;12.834;2023-10-31T09:46:48;98932.94;;;12.49;74.29
29825;BME280;16713;52.916;12.834;2023-10-31T09:49:16;98936.38;;;12.56;73.67
29825;BME280;16713;52.916;12.834;2023-10-31T09:51:42;98929.78;;;12.50;73.54
29825;BME280;16713;52.916;12.834;2023-10-31T09:54:09;98934.88;;;12.52;72.91
29825;BME280;16713;52.916;12.834;2023-10-31T09:56:39;98938.00;;;12.54;73.80
29825;BME280;16713;52.916;12.834;2023-10-31T09:59:05;98935.94;;;12.61;74.24
29825;BME280;16713;52.916;12.834;2023-10-31T10:01:32;98939.50;;;12.58;74.02
29825;BME280;16713;52.916;12.834;2023-10-31T10:03:59;98941.84;;;12.60;74.06
29825;BME280;16713;52.916;12.834;2023-10-31T10:06:26;98940.31;;;12.59;73.42
29825;BME280;16713;52.916;12.834;2023-10-31T10:08:55;98948.09;;;12.67;73.06
29825;BME280;16713;52.916;12.834;2023-10-31T10:11:22;98946.47;;;12.70;73.14
29825;BME280;16713;52.916;12.834;2023-10-31T10:13:51;98953.59;;;12.67;73.79
29825;BME280;16713;52.916;12.834;2023-10-31T10:16:44;98949.69;;;12.65;72.76
29825;BME280;16713;52.916;12.834;2023-10-31T10:19:18;98935.09;;;12.68;72.56
29825;BME280;16713;52.916;12.834;2023-10-31T10:21:55;98942.94;;;12.69;72.09
29825;BME280;16713;52.916;12.834;2023-10-31T10:24:22;98958.31;;;12.67;72.85
29825;BME280;16713;52.916;12.834;2023-10-31T10:26:50;98948.97;;;12.57;72.69
29825;BME280;16713;52.916;12.834;2023-10-31T10:29:17;98966.31;;;12.51;72.88
29825;BME280;16713;52.916;12.834;2023-10-31T10:31:44;98953.78;;;12.50;71.51
29825;BME280;16713;52.916;12.834;2023-10-31T10:34:14;98974.13;;;12.56;71.39
29825;BME280;16713;52.916;12.834;2023-10-31T10:36:46;98977.97;;;12.65;71.81
29825;BME280;16713;52.916;12.834;2023-10-31T10:39:22;98976.38;;;12.68;71.76
29825;BME280;16713;52.916;12.834;2023-10-31T10:41:53;98971.75;;;12.58;71.54
29825;BME280;16713;52.916;12.834;2023-10-31T10:44:31;98975.22;;;12.65;70.89
29825;BME280;16713;52.916;12.834;2023-10-31T10:47:01;98979.94;;;12.61;70.94
29825;BME280;16713;52.916;12.834;2023-10-31T10:49:32;98990.22;;;12.57;72.00
29825;BME280;16713;52.916;12.834;2023-10-31T10:52:07;98991.28;;;12.70;72.47
29825;BME280;16713;52.916;12.834;2023-10-31T10:54:47;98989.66;;;12.73;70.61
29825;BME280;16713;52.916;12.834;2023-10-31T10:57:32;98991.63;;;12.72;71.62
29825;BME280;16713;52.916;12.834;2023-10-31T11:00:04;98983.06;;;12.67;70.99
29825;BME280;16713;52.916;12.834;2023-10-31T11:02:35;98990.44;;;12.77;71.43
29825;BME280;16713;52.916;12.834;2023-10-31T11:05:05;98986.88;;;12.76;71.00
29825;BME280;16713;52.916;12.834;2023-10-31T11:07:34;98977.44;;;12.77;70.75
29825;BME280;16713;52.916;12.834;2023-10-31T11:10:01;98977.16;;;12.68;70.69
29825;BME280;16713;52.916;12.834;2023-10-31T11:12:29;98978.59;;;12.80;69.54
29825;BME280;16713;52.916;12.834;2023-10-31T11:14:57;98977.31;;;12.88;69.10
29825;BME280;16713;52.916;12.834;2023-10-31T11:17:28;98985.81;;;13.00;68.18
29825;BME280;16713;52.916;12.834;2023-10-31T11:19:56;98986.19;;;13.02;69.48
29825;BME280;16713;52.916;12.834;2023-10-31T11:22:23;98973.41;;;12.85;68.85
29825;BME280;16713;52.916;12.834;2023-10-31T11:24:51;98981.63;;;12.89;68.37
29825;BME280;16713;52.916;12.834;2023-10-31T11:27:18;98978.34;;;13.01;68.86
29825;BME280;16713;52.916;12.834;2023-10-31T11:29:44;98985.00;;;13.00;68.53
29825;BME280;16713;52.916;12.834;2023-10-31T11:32:11;98975.25;;;12.95;69.62
29825;BME280;16713;52.916;12.834;2023-10-31T11:34:39;98983.47;;;12.99;69.89
29825;BME280;16713;52.916;12.834;2023-10-31T11:37:23;98980.66;;;13.02;69.73
29825;BME280;16713;52.916;12.834;2023-10-31T11:40:20;98983.38;;;13.06;69.24
29825;BME280;16713;52.916;12.834;2023-10-31T11:42:56;98992.41;;;13.06;68.96
29825;BME280;16713;52.916;12.834;2023-10-31T11:45:26;98985.47;;;12.95;68.09
29825;BME280;16713;52.916;12.834;2023-10-31T11:47:54;98991.75;;;12.95;67.51
29825;BME280;16713;52.916;12.834;2023-10-31T11:50:22;98996.44;;;12.98;67.72
29825;BME280;16713;52.916;12.834;2023-10-31T11:53:07;98997.25;;;12.95;68.81
29825;BME280;16713;52.916;12.834;2023-10-31T11:55:36;99008.72;;;12.90;67.83
29825;BME280;16713;52.916;12.834;2023-10-31T12:01:02;98995.94;;;12.77;67.38
29825;BME280;16713;52.916;12.834;2023-10-31T12:03:40;99003.25;;;12.87;67.22
29825;BME280;16713;52.916;12.834;2023-10-31T12:06:09;99014.25;;;12.87;67.84
29825;BME280;16713;52.916;12.834;2023-10-31T12:08:37;99020.09;;;12.92;66.97
29825;BME280;16713;52.916;12.834;2023-10-31T12:11:09;99023.31;;;12.87;68.68
29825;BME280;16713;52.916;12.834;2023-10-31T12:13:38;99015.13;;;12.80;67.54
29825;BME280;16713;52.916;12.834;2023-10-31T12:16:06;99012.34;;;12.84;68.43
29825;BME280;16713;52.916;12.834;2023-10-31T12:18:34;99032.84;;;12.79;68.40
29825;BME280;16713;52.916;12.834;2023-10-31T12:21:02;99050.78;;;12.91;66.76
29825;BME280;16713;52.916;12.834;2023-10-31T12:23:29;99042.59;;;12.84;67.25
29825;BME280;16713;52.916;12.834;2023-10-31T12:25:56;99054.81;;;12.83;67.66
29825;BME280;16713;52.916;12.834;2023-10-31T12:28:24;99031.31;;;12.75;68.23
29825;BME280;16713;52.916;12.834;2023-10-31T12:30:52;99050.19;;;12.73;66.92
29825;BME280;16713;52.916;12.834;2023-10-31T12:33:26;99055.94;;;12.85;68.12
29825;BME280;16713;52.916;12.834;2023-10-31T12:35:57;99056.66;;;12.93;67.83
29825;BME280;16713;52.916;12.834;2023-10-31T12:38:24;99070.06;;;12.91;66.98
29825;BME280;16713;52.916;12.834;2023-10-31T12:40:51;99076.75;;;12.90;68.35
29825;BME280;16713;52.916;12.834;2023-10-31T12:43:18;99078.28;;;12.94;68.30
29825;BME280;16713;52.916;12.834;2023-10-31T12:45:45;99077.88;;;12.92;67.23
29825;BME280;16713;52.916;12.834;2023-10-31T12:48:11;99072.19;;;12.73;68.35
29825;BME280;16713;52.916;12.834;2023-10-31T12:50:39;99085.97;;;12.69;68.46
29825;BME280;16713;52.916;12.834;2023-10-31T12:53:06;99097.75;;;12.73;68.95
29825;BME280;16713;52.916;12.834;2023-10-31T12:55:40;99094.19;;;12.76;68.75